METAR Data
IDs: Format: Raw Decoded Include TAF

Data at: 1959 UTC 13 Nov 2019

METAR for:KHLX (Hillsville/Twin Cnty, VA, US)
Text:KHLX 131955Z AUTO 18005KT 10SM CLR 01/M12 A3022 RMK AO2 T00061125
Temperature: 0.6°C ( 33°F)
Dewpoint:-12.5°C ( 10°F) [RH = 37%]
Pressure (altimeter):30.22 inches Hg (1023.5 mb)
Winds:from the S (180 degrees) at 6 MPH (5 knots; 2.6 m/s)
Visibility:10 or more sm (16+ km)
Ceiling:at least 12,000 feet AGL
Clouds:sky clear below 12,000 feet AGL
QC Flag:automated observation with no human augmentation